createdAt,value
2022-12-17T00:01:45.459Z,99.90
2022-12-17T00:04:30.409Z,99.90
2022-12-17T00:07:15.436Z,99.90
2022-12-17T00:10:00.437Z,99.90
2022-12-17T00:12:45.678Z,99.90
2022-12-17T00:15:30.752Z,99.90
2022-12-17T00:18:25.359Z,99.90
2022-12-17T00:21:18.225Z,99.90
2022-12-17T00:24:03.357Z,99.90
2022-12-17T00:26:48.570Z,99.90
2022-12-17T00:29:33.619Z,99.90
2022-12-17T00:32:18.659Z,99.90
2022-12-17T00:35:03.747Z,99.90
2022-12-17T00:37:49.064Z,99.90
2022-12-17T00:40:34.076Z,99.90
2022-12-17T00:43:23.241Z,99.90
2022-12-17T00:46:08.702Z,99.90
2022-12-17T00:48:53.848Z,99.90
2022-12-17T00:51:39.353Z,99.90
2022-12-17T00:54:24.258Z,99.90
2022-12-17T00:57:09.973Z,99.90
2022-12-17T00:59:55.047Z,99.90
2022-12-17T01:02:41.425Z,99.90
2022-12-17T01:05:27.112Z,99.90
2022-12-17T01:08:12.122Z,99.90
2022-12-17T01:10:57.240Z,99.90
2022-12-17T01:13:42.297Z,99.90
2022-12-17T01:16:32.162Z,99.90
2022-12-17T01:19:17.842Z,99.90
2022-12-17T01:22:06.058Z,99.90
2022-12-17T01:24:51.101Z,99.90
2022-12-17T01:27:36.908Z,99.90
2022-12-17T01:30:22.314Z,99.90
2022-12-17T01:33:07.300Z,99.90
2022-12-17T01:35:52.384Z,99.90
2022-12-17T01:38:38.549Z,99.90
2022-12-17T01:41:24.127Z,99.90
2022-12-17T01:44:09.235Z,99.90
2022-12-17T01:46:55.831Z,99.90
2022-12-17T01:49:42.284Z,99.90
2022-12-17T01:52:27.870Z,99.90
2022-12-17T01:55:12.849Z,99.90
2022-12-17T01:57:57.801Z,99.90
2022-12-17T02:00:50.517Z,99.90
2022-12-17T02:03:36.867Z,99.90
2022-12-17T02:06:32.764Z,99.90
2022-12-17T02:09:21.331Z,99.90
2022-12-17T02:12:09.327Z,99.90
2022-12-17T02:15:06.819Z,99.90
2022-12-17T02:18:05.070Z,99.90
2022-12-17T02:20:58.174Z,99.90
2022-12-17T02:23:58.880Z,99.90
2022-12-17T02:27:17.433Z,99.90
2022-12-17T02:30:13.130Z,99.90
2022-12-17T02:32:59.769Z,99.90
2022-12-17T02:36:08.095Z,99.90
2022-12-17T02:38:53.276Z,99.90
2022-12-17T02:41:47.297Z,99.90
2022-12-17T02:44:34.302Z,99.90
2022-12-17T02:47:20.424Z,99.90
2022-12-17T02:50:05.344Z,99.90
2022-12-17T02:52:50.569Z,99.90
2022-12-17T02:55:35.471Z,99.90
2022-12-17T02:58:20.578Z,99.90
2022-12-17T03:01:05.867Z,99.90
2022-12-17T03:03:50.830Z,99.90
2022-12-17T03:06:36.019Z,99.90
2022-12-17T03:09:20.945Z,99.90
2022-12-17T03:12:05.938Z,99.90
2022-12-17T03:14:50.908Z,99.90
2022-12-17T03:17:36.216Z,99.90
2022-12-17T03:20:21.749Z,99.90
2022-12-17T03:23:06.805Z,99.90
2022-12-17T03:25:51.833Z,99.90
2022-12-17T03:28:37.012Z,99.90
2022-12-17T03:31:22.035Z,99.90
2022-12-17T03:34:07.093Z,99.90
2022-12-17T03:36:52.392Z,99.90
2022-12-17T03:39:37.349Z,99.90
2022-12-17T03:42:22.304Z,99.90
2022-12-17T03:45:07.432Z,99.90
2022-12-17T03:47:52.390Z,99.90
2022-12-17T03:50:37.456Z,99.90
2022-12-17T03:53:22.947Z,99.90
2022-12-17T03:56:08.119Z,99.90
2022-12-17T03:58:53.110Z,99.90
2022-12-17T04:01:38.200Z,99.90
2022-12-17T04:04:23.446Z,99.90
2022-12-17T04:07:08.413Z,99.90
2022-12-17T04:09:57.914Z,99.90
2022-12-17T04:12:43.140Z,99.90
2022-12-17T04:15:28.528Z,99.90
2022-12-17T04:18:13.698Z,99.90
2022-12-17T04:20:58.565Z,99.90
2022-12-17T04:23:43.702Z,99.90
2022-12-17T04:26:28.742Z,99.90
2022-12-17T04:29:13.786Z,99.90
2022-12-17T04:31:58.851Z,99.90
2022-12-17T04:34:43.927Z,99.90
2022-12-17T04:37:29.018Z,99.90
2022-12-17T04:40:13.876Z,99.90
2022-12-17T04:42:58.926Z,99.90
2022-12-17T04:45:44.018Z,99.90
2022-12-17T04:48:28.998Z,99.90
2022-12-17T04:51:14.067Z,99.90
2022-12-17T04:53:59.089Z,99.90
2022-12-17T04:56:44.246Z,99.90
2022-12-17T04:59:29.244Z,99.90
2022-12-17T05:02:14.400Z,99.90
2022-12-17T05:04:59.363Z,99.90
2022-12-17T05:07:44.381Z,99.90
2022-12-17T05:10:29.482Z,99.90
2022-12-17T05:13:18.981Z,99.90
2022-12-17T05:16:04.186Z,99.90
2022-12-17T05:18:49.889Z,99.90
2022-12-17T05:21:34.840Z,99.90
2022-12-17T05:24:19.919Z,99.90
2022-12-17T05:27:04.961Z,99.90
2022-12-17T05:29:49.951Z,99.90
2022-12-17T05:32:34.866Z,99.90
2022-12-17T05:35:19.935Z,99.90
2022-12-17T05:38:04.896Z,99.90
2022-12-17T05:40:49.897Z,99.90
2022-12-17T05:43:35.222Z,99.90
2022-12-17T05:46:21.039Z,99.90
2022-12-17T05:49:06.243Z,99.90
2022-12-17T05:51:51.292Z,99.90
2022-12-17T05:54:36.329Z,99.90
2022-12-17T05:57:21.400Z,99.90
2022-12-17T06:00:06.539Z,99.90
2022-12-17T06:02:51.594Z,99.90
2022-12-17T06:05:36.876Z,99.90
2022-12-17T06:08:26.164Z,99.90
2022-12-17T06:11:11.322Z,99.90
2022-12-17T06:13:56.871Z,99.90
2022-12-17T06:16:42.053Z,99.90
2022-12-17T06:19:27.032Z,99.90
2022-12-17T06:22:12.132Z,99.90
2022-12-17T06:24:57.247Z,99.90
2022-12-17T06:27:42.489Z,99.90
2022-12-17T06:30:28.085Z,99.90
2022-12-17T06:33:24.829Z,99.90
2022-12-17T06:36:11.026Z,99.90
2022-12-17T06:38:56.084Z,99.90
2022-12-17T06:41:41.040Z,99.90
2022-12-17T06:44:26.236Z,99.90
2022-12-17T06:47:11.307Z,99.90
2022-12-17T06:50:01.123Z,99.90
2022-12-17T06:52:46.447Z,99.90
2022-12-17T06:55:31.595Z,99.90
2022-12-17T06:58:17.549Z,99.90
2022-12-17T07:01:03.130Z,99.90
2022-12-17T07:03:48.335Z,99.90
2022-12-17T07:06:33.592Z,99.90
2022-12-17T07:09:19.626Z,99.90
2022-12-17T07:12:04.637Z,99.90
2022-12-17T07:15:00.339Z,99.90
2022-12-17T07:17:45.573Z,99.90
2022-12-17T07:20:31.096Z,99.90
2022-12-17T07:23:15.985Z,99.90
2022-12-17T07:26:01.075Z,99.90
2022-12-17T07:28:46.158Z,99.90
2022-12-17T07:31:31.092Z,99.90
2022-12-17T07:34:16.256Z,99.90
2022-12-17T07:37:01.456Z,99.90
2022-12-17T07:39:46.559Z,99.90
2022-12-17T07:42:31.502Z,99.90
2022-12-17T07:45:16.671Z,99.90
2022-12-17T07:48:01.904Z,99.90
2022-12-17T07:50:46.895Z,99.90
2022-12-17T07:53:31.888Z,99.90
2022-12-17T07:56:17.004Z,99.90
2022-12-17T07:59:02.036Z,99.90
2022-12-17T08:01:47.256Z,99.90
2022-12-17T08:04:32.326Z,99.90
2022-12-17T08:07:17.221Z,99.90
2022-12-17T08:10:02.484Z,99.90
2022-12-17T08:12:47.437Z,99.90
2022-12-17T08:15:43.037Z,99.90
2022-12-17T08:18:28.286Z,99.90
2022-12-17T08:21:13.502Z,99.90
2022-12-17T08:23:58.545Z,99.90
2022-12-17T08:26:47.799Z,99.90
2022-12-17T08:29:33.444Z,99.90
2022-12-17T08:32:18.732Z,99.90
2022-12-17T08:35:03.717Z,99.90
2022-12-17T08:37:49.372Z,99.90
2022-12-17T08:40:34.328Z,99.90
2022-12-17T08:43:19.503Z,99.90
2022-12-17T08:46:08.205Z,99.90
2022-12-17T08:48:53.406Z,99.90
2022-12-17T08:51:38.973Z,99.90
2022-12-17T08:54:23.909Z,99.90
2022-12-17T08:57:08.939Z,99.90
2022-12-17T08:59:53.910Z,99.90
2022-12-17T09:02:39.591Z,99.90
2022-12-17T09:05:25.285Z,99.90
2022-12-17T09:08:34.055Z,99.90
2022-12-17T09:11:19.436Z,99.90
2022-12-17T09:14:04.454Z,99.90
2022-12-17T09:16:49.559Z,99.90
2022-12-17T09:19:34.719Z,99.90
2022-12-17T09:22:19.796Z,99.90
2022-12-17T09:25:04.809Z,99.90
2022-12-17T09:27:49.767Z,99.90
2022-12-17T09:30:34.937Z,99.90
2022-12-17T09:33:20.031Z,99.90
2022-12-17T09:36:05.193Z,99.90
2022-12-17T09:38:50.342Z,99.90
2022-12-17T09:41:45.708Z,99.90
2022-12-17T09:44:53.252Z,99.90
2022-12-17T09:47:54.153Z,99.90
2022-12-17T09:50:39.195Z,99.90
2022-12-17T09:53:33.387Z,99.90
2022-12-17T09:56:18.594Z,99.90
2022-12-17T09:59:03.683Z,99.90
2022-12-17T10:01:53.176Z,99.90
2022-12-17T10:04:55.518Z,99.90
2022-12-17T10:07:47.221Z,99.90
2022-12-17T10:10:44.160Z,99.90
2022-12-17T10:13:31.678Z,99.90
2022-12-17T10:16:16.891Z,99.90
2022-12-17T10:19:02.485Z,99.90
2022-12-17T10:21:47.577Z,99.90
2022-12-17T10:24:32.468Z,99.90
2022-12-17T10:27:17.575Z,99.90
2022-12-17T10:30:03.237Z,99.90
2022-12-17T10:32:48.721Z,99.90
2022-12-17T10:35:52.743Z,99.90
2022-12-17T10:38:45.978Z,99.90
2022-12-17T10:41:41.468Z,99.90
2022-12-17T10:44:52.664Z,99.90
2022-12-17T10:47:39.682Z,99.90
2022-12-17T10:50:29.198Z,99.90
2022-12-17T10:53:14.247Z,99.90
2022-12-17T10:56:12.446Z,99.90
2022-12-17T10:59:05.532Z,99.90
2022-12-17T11:01:50.741Z,99.90
2022-12-17T11:04:48.976Z,99.90
2022-12-17T11:07:48.046Z,99.90
2022-12-17T11:10:38.053Z,99.90
2022-12-17T11:13:34.743Z,99.90
2022-12-17T11:16:20.013Z,99.90
2022-12-17T11:19:16.718Z,99.90
2022-12-17T11:22:09.602Z,99.90
2022-12-17T11:25:21.672Z,99.90
2022-12-17T11:28:09.834Z,99.90
2022-12-17T11:31:13.218Z,99.90
2022-12-17T11:34:17.555Z,99.90
2022-12-17T11:37:32.115Z,99.90
2022-12-17T11:40:24.731Z,99.90
2022-12-17T11:43:30.085Z,99.90
2022-12-17T11:46:27.927Z,99.90
2022-12-17T11:49:35.056Z,99.90
2022-12-17T11:52:26.169Z,99.90
2022-12-17T11:55:14.386Z,99.60
2022-12-17T11:58:19.077Z,99.00
2022-12-17T12:01:39.046Z,99.90
2022-12-17T12:04:55.151Z,99.90
2022-12-17T12:07:47.372Z,99.60
2022-12-17T12:10:42.065Z,98.10
2022-12-17T12:13:55.060Z,98.40
2022-12-17T12:16:51.958Z,98.00
2022-12-17T12:19:44.051Z,97.90
2022-12-17T12:22:37.405Z,97.80
2022-12-17T12:25:47.172Z,97.10
2022-12-17T12:29:02.173Z,97.80
2022-12-17T12:31:52.836Z,97.20
2022-12-17T12:34:46.574Z,97.70
2022-12-17T12:37:33.117Z,97.60
2022-12-17T12:40:30.408Z,97.20
2022-12-17T12:43:20.245Z,96.80
2022-12-17T12:46:05.357Z,97.50
2022-12-17T12:48:50.662Z,97.70
2022-12-17T12:51:44.494Z,96.90
2022-12-17T12:54:44.818Z,97.00
2022-12-17T12:57:57.297Z,96.40
2022-12-17T13:00:56.348Z,97.30
2022-12-17T13:04:07.847Z,97.20
2022-12-17T13:06:54.726Z,97.00
2022-12-17T13:09:34.163Z,97.70
2022-12-17T13:12:03.952Z,97.70
2022-12-17T13:14:58.592Z,97.90
2022-12-17T13:17:35.679Z,98.10
2022-12-17T13:20:32.564Z,98.00
2022-12-17T13:23:11.355Z,97.30
2022-12-17T13:25:38.153Z,96.00
2022-12-17T13:28:05.024Z,95.00
2022-12-17T13:30:36.224Z,97.50
2022-12-17T13:33:45.722Z,96.60
2022-12-17T13:36:28.763Z,97.80
2022-12-17T13:39:00.738Z,97.60
2022-12-17T13:41:31.502Z,97.10
2022-12-17T13:44:02.652Z,97.40
2022-12-17T13:46:46.442Z,94.80
2022-12-17T13:49:17.833Z,96.70
2022-12-17T13:51:44.483Z,96.80
2022-12-17T13:54:18.567Z,96.10
2022-12-17T13:56:45.408Z,96.60
2022-12-17T13:59:23.976Z,95.50
2022-12-17T14:01:52.372Z,95.50
2022-12-17T14:04:21.197Z,95.60
2022-12-17T14:06:47.840Z,93.40
2022-12-17T14:09:18.524Z,94.10
2022-12-17T14:12:03.476Z,93.30
2022-12-17T14:14:34.622Z,96.30
2022-12-17T14:17:01.416Z,96.30
2022-12-17T14:19:28.089Z,94.20
2022-12-17T14:21:54.847Z,94.80
2022-12-17T14:24:26.837Z,95.60
2022-12-17T14:26:58.453Z,96.60
2022-12-17T14:29:29.587Z,95.00
2022-12-17T14:32:01.247Z,97.00
2022-12-17T14:34:27.972Z,94.00
2022-12-17T14:36:56.793Z,96.30
2022-12-17T14:39:31.402Z,96.90
2022-12-17T14:42:32.340Z,96.10
2022-12-17T14:45:07.836Z,97.40
2022-12-17T14:47:35.667Z,95.70
2022-12-17T14:50:17.854Z,96.60
2022-12-17T14:52:53.012Z,97.00
2022-12-17T14:55:33.846Z,98.20
2022-12-17T14:58:08.894Z,98.10
2022-12-17T15:00:38.150Z,98.10
2022-12-17T15:03:04.917Z,96.20
2022-12-17T15:05:32.470Z,96.40
2022-12-17T15:07:59.071Z,96.70
2022-12-17T15:10:25.657Z,95.90
2022-12-17T15:12:53.191Z,95.70
2022-12-17T15:15:21.598Z,94.60
2022-12-17T15:17:48.264Z,94.60
2022-12-17T15:20:19.635Z,94.40
2022-12-17T15:22:46.619Z,95.00
2022-12-17T15:25:14.207Z,95.00
2022-12-17T15:27:40.864Z,94.40
2022-12-17T15:30:07.943Z,94.50
2022-12-17T15:32:34.685Z,94.20
2022-12-17T15:35:01.699Z,93.50
2022-12-17T15:37:28.296Z,94.90
2022-12-17T15:39:56.223Z,93.50
2022-12-17T15:42:41.100Z,94.20
2022-12-17T15:45:08.352Z,96.30
2022-12-17T15:47:34.951Z,93.50
2022-12-17T15:50:01.532Z,94.30
2022-12-17T15:52:28.272Z,94.10
2022-12-17T15:54:54.875Z,94.50
2022-12-17T15:57:21.652Z,93.90
2022-12-17T15:59:48.239Z,93.30
2022-12-17T16:02:14.981Z,93.70
2022-12-17T16:04:41.703Z,93.50
2022-12-17T16:07:08.283Z,93.10
2022-12-17T16:09:34.918Z,93.00
2022-12-17T16:12:01.499Z,93.00
2022-12-17T16:14:28.250Z,92.80
2022-12-17T16:16:55.001Z,92.80
2022-12-17T16:19:21.648Z,93.20
2022-12-17T16:21:48.246Z,93.00
2022-12-17T16:24:14.845Z,92.90
2022-12-17T16:26:41.450Z,93.20
2022-12-17T16:29:08.044Z,93.30
2022-12-17T16:31:35.063Z,93.50
2022-12-17T16:34:01.802Z,93.70
2022-12-17T16:36:28.489Z,93.60
2022-12-17T16:38:55.120Z,93.50
2022-12-17T16:41:21.794Z,93.70
2022-12-17T16:43:48.506Z,93.80
2022-12-17T16:46:32.197Z,94.10
2022-12-17T16:49:00.411Z,94.70
2022-12-17T16:51:29.095Z,95.00
2022-12-17T16:53:56.762Z,95.00
2022-12-17T16:56:26.126Z,94.90
2022-12-17T16:58:52.799Z,95.10
2022-12-17T17:01:28.059Z,95.60
2022-12-17T17:03:54.962Z,95.30
2022-12-17T17:06:21.644Z,95.40
2022-12-17T17:08:48.351Z,96.00
2022-12-17T17:11:22.701Z,96.20
2022-12-17T17:13:50.395Z,97.00
2022-12-17T17:16:17.515Z,96.70
2022-12-17T17:18:44.169Z,97.80
2022-12-17T17:21:19.889Z,97.90
2022-12-17T17:23:47.440Z,97.60
2022-12-17T17:26:14.105Z,97.50
2022-12-17T17:28:40.864Z,97.90
2022-12-17T17:31:10.858Z,98.20
2022-12-17T17:33:38.702Z,99.10
2022-12-17T17:36:10.437Z,98.30
2022-12-17T17:38:37.939Z,98.90
2022-12-17T17:41:05.418Z,97.80
2022-12-17T17:43:32.221Z,98.60
2022-12-17T17:46:09.947Z,99.10
2022-12-17T17:48:36.853Z,99.30
2022-12-17T17:51:08.668Z,99.50
2022-12-17T17:53:35.821Z,99.50
2022-12-17T17:56:07.138Z,99.90
2022-12-17T17:58:34.651Z,99.80
2022-12-17T18:01:07.750Z,99.70
2022-12-17T18:03:34.581Z,99.40
2022-12-17T18:06:03.113Z,99.70
2022-12-17T18:08:31.049Z,99.90
2022-12-17T18:11:01.345Z,99.90
2022-12-17T18:13:46.754Z,99.90
2022-12-17T18:16:13.511Z,99.90
2022-12-17T18:18:40.546Z,99.90
2022-12-17T18:21:15.139Z,99.90
2022-12-17T18:23:41.913Z,99.90
2022-12-17T18:26:16.562Z,99.90
2022-12-17T18:28:43.514Z,99.90
2022-12-17T18:31:15.986Z,99.90
2022-12-17T18:33:44.543Z,99.90
2022-12-17T18:36:13.015Z,99.90
2022-12-17T18:38:40.108Z,99.90
2022-12-17T18:41:28.465Z,99.90
2022-12-17T18:43:55.169Z,99.90
2022-12-17T18:46:23.457Z,99.90
2022-12-17T18:48:53.390Z,99.90
2022-12-17T18:51:21.369Z,99.90
2022-12-17T18:53:48.282Z,99.90
2022-12-17T18:56:31.655Z,99.90
2022-12-17T18:59:01.937Z,99.90
2022-12-17T19:01:35.843Z,99.90
2022-12-17T19:04:03.856Z,99.90
2022-12-17T19:06:30.752Z,99.90
2022-12-17T19:08:57.328Z,99.90
2022-12-17T19:11:23.947Z,99.90
2022-12-17T19:13:50.624Z,99.90
2022-12-17T19:16:25.070Z,99.90
2022-12-17T19:18:53.208Z,99.90
2022-12-17T19:21:19.953Z,99.90
2022-12-17T19:23:47.338Z,99.90
2022-12-17T19:26:18.679Z,99.90
2022-12-17T19:28:47.856Z,99.90
2022-12-17T19:31:14.615Z,99.90
2022-12-17T19:33:41.376Z,99.90
2022-12-17T19:36:11.018Z,99.90
2022-12-17T19:38:37.898Z,99.90
2022-12-17T19:41:09.809Z,99.90
2022-12-17T19:43:36.433Z,99.90
2022-12-17T19:46:04.896Z,99.90
2022-12-17T19:48:33.027Z,99.90
2022-12-17T19:50:59.704Z,99.90
2022-12-17T19:53:27.237Z,99.90
2022-12-17T19:55:55.410Z,99.90
2022-12-17T19:58:25.052Z,99.90
2022-12-17T20:00:52.059Z,99.90
2022-12-17T20:03:18.918Z,99.90
2022-12-17T20:05:46.092Z,99.90
2022-12-17T20:08:13.252Z,99.90
2022-12-17T20:10:40.961Z,99.90
2022-12-17T20:13:07.583Z,99.90
2022-12-17T20:15:34.181Z,99.90
2022-12-17T20:18:00.757Z,99.90
2022-12-17T20:20:27.361Z,99.90
2022-12-17T20:22:53.976Z,99.90
2022-12-17T20:25:20.600Z,99.90
2022-12-17T20:27:47.175Z,99.90
2022-12-17T20:30:13.945Z,99.90
2022-12-17T20:32:40.543Z,99.90
2022-12-17T20:35:07.786Z,99.90
2022-12-17T20:37:34.390Z,99.90
2022-12-17T20:40:01.039Z,99.90
2022-12-17T20:42:27.626Z,99.90
2022-12-17T20:44:54.225Z,99.90
2022-12-17T20:47:20.923Z,99.90
2022-12-17T20:49:47.671Z,99.90
2022-12-17T20:52:14.271Z,99.90
2022-12-17T20:54:40.871Z,99.90
2022-12-17T20:57:07.481Z,99.90
2022-12-17T20:59:34.070Z,99.90
2022-12-17T21:02:00.824Z,99.90
2022-12-17T21:04:27.481Z,99.90
2022-12-17T21:06:54.087Z,99.90
2022-12-17T21:09:22.763Z,99.90
2022-12-17T21:11:49.580Z,99.90
2022-12-17T21:14:16.883Z,99.90
2022-12-17T21:16:43.795Z,99.90
2022-12-17T21:19:16.438Z,99.90
2022-12-17T21:21:43.155Z,99.90
2022-12-17T21:24:10.077Z,99.90
2022-12-17T21:26:41.577Z,99.90
2022-12-17T21:29:08.583Z,99.90
2022-12-17T21:31:45.937Z,99.90
2022-12-17T21:34:14.574Z,99.90
2022-12-17T21:36:41.204Z,99.90
2022-12-17T21:39:09.579Z,99.90
2022-12-17T21:41:37.887Z,99.90
2022-12-17T21:44:06.960Z,99.90
2022-12-17T21:46:33.819Z,99.90
2022-12-17T21:49:01.085Z,99.90
2022-12-17T21:51:28.492Z,99.90
2022-12-17T21:53:57.394Z,99.90
2022-12-17T21:56:24.120Z,99.90
2022-12-17T21:58:54.992Z,99.90
2022-12-17T22:01:24.811Z,99.90
2022-12-17T22:03:54.249Z,99.90
2022-12-17T22:06:23.293Z,99.90
2022-12-17T22:08:51.114Z,99.90
2022-12-17T22:11:25.041Z,99.90
2022-12-17T22:14:13.991Z,99.90
2022-12-17T22:16:49.272Z,99.90
2022-12-17T22:19:19.129Z,99.90
2022-12-17T22:21:49.372Z,99.90
2022-12-17T22:24:21.121Z,99.90
2022-12-17T22:26:47.949Z,99.90
2022-12-17T22:29:37.811Z,99.90
2022-12-17T22:32:28.769Z,99.90
2022-12-17T22:36:12.634Z,99.90
2022-12-17T22:42:29.542Z,99.90
2022-12-17T22:44:28.595Z,99.90
2022-12-17T22:44:49.751Z,99.90
2022-12-17T22:46:18.008Z,99.90
2022-12-17T22:48:44.768Z,99.90
2022-12-17T22:51:12.755Z,99.90
2022-12-17T22:53:50.057Z,99.90
2022-12-17T22:56:31.347Z,99.90
2022-12-17T22:59:03.823Z,99.90
2022-12-17T23:01:30.875Z,99.90
2022-12-17T23:03:58.551Z,99.90
2022-12-17T23:06:25.233Z,99.90
2022-12-17T23:08:51.928Z,99.90
2022-12-17T23:11:20.320Z,99.90
2022-12-17T23:13:46.961Z,99.90
2022-12-17T23:16:13.655Z,99.90
2022-12-17T23:18:41.048Z,99.60
2022-12-17T23:21:11.828Z,99.90
2022-12-17T23:23:38.950Z,99.90
2022-12-17T23:26:18.975Z,99.90
2022-12-17T23:28:45.695Z,99.90
2022-12-17T23:31:13.914Z,99.90
2022-12-17T23:33:41.297Z,99.90
2022-12-17T23:36:18.329Z,99.90
2022-12-17T23:38:45.043Z,99.90
2022-12-17T23:41:17.262Z,99.90
2022-12-17T23:43:44.053Z,99.90
2022-12-17T23:46:10.728Z,99.90
2022-12-17T23:48:44.798Z,99.90
2022-12-17T23:51:12.214Z,99.90
2022-12-17T23:53:39.308Z,99.90
2022-12-17T23:56:19.315Z,99.90
2022-12-17T23:58:46.453Z,99.20
